createdAt,value
2022-08-26T00:00:46.979Z,100088.84
2022-08-26T00:03:23.593Z,100079.28
2022-08-26T00:05:59.167Z,100088.72
2022-08-26T00:08:33.498Z,100080.66
2022-08-26T00:11:08.116Z,100085.69
2022-08-26T00:13:47.903Z,100092.41
2022-08-26T00:16:23.939Z,100084.00
2022-08-26T00:18:58.676Z,100080.25
2022-08-26T00:21:34.104Z,100077.09
2022-08-26T00:24:08.768Z,100073.53
2022-08-26T00:26:43.858Z,100071.50
2022-08-26T00:29:19.499Z,100078.03
2022-08-26T00:31:55.569Z,100077.63
2022-08-26T00:34:30.352Z,100083.94
2022-08-26T00:37:08.995Z,100077.94
2022-08-26T00:39:44.834Z,100074.37
2022-08-26T00:42:20.031Z,100072.28
2022-08-26T00:44:55.685Z,100068.88
2022-08-26T00:47:33.407Z,100067.56
2022-08-26T00:50:12.724Z,100060.47
2022-08-26T00:52:51.824Z,100065.88
2022-08-26T00:55:37.760Z,100060.28
2022-08-26T00:58:12.575Z,100059.19
2022-08-26T01:00:47.165Z,100057.94
2022-08-26T01:03:25.826Z,100061.34
2022-08-26T01:06:03.879Z,100057.28
2022-08-26T01:08:41.492Z,100056.50
2022-08-26T01:11:17.215Z,100053.34
2022-08-26T01:13:55.864Z,100052.25
2022-08-26T01:16:32.038Z,100062.00
2022-08-26T01:19:14.422Z,100055.44
2022-08-26T01:21:56.685Z,100054.63
2022-08-26T01:24:32.808Z,100056.91
2022-08-26T01:27:10.404Z,100057.66
2022-08-26T01:29:45.662Z,100059.34
2022-08-26T01:32:23.473Z,100046.97
2022-08-26T01:34:57.899Z,100050.75
2022-08-26T01:37:40.350Z,100045.31
2022-08-26T01:40:22.554Z,100050.94
2022-08-26T01:42:57.293Z,100057.84
2022-08-26T01:45:34.782Z,100064.22
2022-08-26T01:48:15.436Z,100059.84
2022-08-26T01:50:50.267Z,100064.69
2022-08-26T01:53:25.991Z,100057.75
2022-08-26T01:56:03.161Z,100056.53
2022-08-26T01:58:41.100Z,100056.09
2022-08-26T02:01:15.914Z,100048.38
2022-08-26T02:03:59.944Z,100049.47
2022-08-26T02:06:34.478Z,100061.50
2022-08-26T02:09:09.110Z,100061.94
2022-08-26T02:11:45.240Z,100053.72
2022-08-26T02:14:22.841Z,100057.06
2022-08-26T02:16:57.307Z,100059.56
2022-08-26T02:19:34.790Z,100045.84
2022-08-26T02:22:13.988Z,100044.84
2022-08-26T02:24:51.937Z,100044.78
2022-08-26T02:27:32.259Z,100043.75
2022-08-26T02:30:12.312Z,100048.38
2022-08-26T02:32:49.567Z,100043.75
2022-08-26T02:35:25.090Z,100039.25
2022-08-26T02:38:00.553Z,100042.25
2022-08-26T02:40:39.351Z,100047.47
2022-08-26T02:43:15.898Z,100043.38
2022-08-26T02:45:50.370Z,100030.00
2022-08-26T02:48:25.199Z,100035.66
2022-08-26T02:51:01.825Z,100035.00
2022-08-26T02:53:35.963Z,100022.84
2022-08-26T02:56:11.333Z,100037.94
2022-08-26T02:58:47.110Z,100029.81
2022-08-26T03:01:24.868Z,100032.41
2022-08-26T03:04:00.254Z,100030.94
2022-08-26T03:06:35.019Z,100031.16
2022-08-26T03:09:14.006Z,100035.25
2022-08-26T03:11:55.579Z,100033.75
2022-08-26T03:14:31.207Z,100031.16
2022-08-26T03:17:06.233Z,100036.34
2022-08-26T03:19:43.803Z,100022.69
2022-08-26T03:22:18.645Z,100037.03
2022-08-26T03:24:54.693Z,100026.03
2022-08-26T03:27:29.339Z,100027.94
2022-08-26T03:30:24.119Z,100027.59
2022-08-26T03:32:59.259Z,100029.53
2022-08-26T03:35:35.165Z,100034.50
2022-08-26T03:38:09.883Z,100026.78
2022-08-26T03:40:44.812Z,100027.00
2022-08-26T03:43:19.756Z,100033.34
2022-08-26T03:45:55.509Z,100026.66
2022-08-26T03:48:30.016Z,100030.94
2022-08-26T03:51:06.166Z,100032.12
2022-08-26T03:53:41.006Z,100034.56
2022-08-26T03:56:15.840Z,100028.13
2022-08-26T03:58:50.511Z,100033.06
2022-08-26T04:01:26.534Z,100034.16
2022-08-26T04:04:01.473Z,100037.91
2022-08-26T04:06:38.146Z,100031.25
2022-08-26T04:09:15.237Z,100041.59
2022-08-26T04:11:50.601Z,100039.09
2022-08-26T04:14:26.867Z,100036.81
2022-08-26T04:17:05.661Z,100041.78
2022-08-26T04:19:41.178Z,100042.00
2022-08-26T04:22:15.569Z,100037.91
2022-08-26T04:24:58.713Z,100039.22
2022-08-26T04:27:32.803Z,100038.66
2022-08-26T04:30:09.056Z,100039.63
2022-08-26T04:32:45.693Z,100046.31
2022-08-26T04:35:25.841Z,100043.94
2022-08-26T04:38:00.374Z,100036.19
2022-08-26T04:40:35.139Z,100039.19
2022-08-26T04:43:09.686Z,100041.13
2022-08-26T04:45:44.629Z,100035.72
2022-08-26T04:48:20.968Z,100037.78
2022-08-26T04:50:55.423Z,100037.50
2022-08-26T04:53:30.321Z,100035.88
2022-08-26T04:56:05.805Z,100038.00
2022-08-26T04:58:41.347Z,100038.81
2022-08-26T05:01:16.090Z,100038.62
2022-08-26T05:03:52.827Z,100039.56
2022-08-26T05:06:28.131Z,100041.31
2022-08-26T05:09:02.195Z,100040.75
2022-08-26T05:11:38.454Z,100039.25
2022-08-26T05:14:12.959Z,100038.31
2022-08-26T05:16:47.994Z,100037.97
2022-08-26T05:19:24.926Z,100044.53
2022-08-26T05:22:02.286Z,100046.59
2022-08-26T05:24:36.880Z,100047.28
2022-08-26T05:27:12.623Z,100052.97
2022-08-26T05:29:46.757Z,100046.09
2022-08-26T05:32:28.968Z,100048.31
2022-08-26T05:35:04.855Z,100047.69
2022-08-26T05:37:43.304Z,100045.84
2022-08-26T05:40:17.536Z,100050.34
2022-08-26T05:42:54.163Z,100055.34
2022-08-26T05:45:28.848Z,100048.53
2022-08-26T05:48:03.909Z,100051.94
2022-08-26T05:50:43.547Z,100060.75
2022-08-26T05:53:20.781Z,100054.41
2022-08-26T05:55:56.032Z,100048.44
2022-08-26T05:58:30.852Z,100051.50
2022-08-26T06:01:07.508Z,100051.25
2022-08-26T06:03:46.913Z,100058.00
2022-08-26T06:06:29.663Z,100054.59
2022-08-26T06:09:10.957Z,100061.59
2022-08-26T06:11:45.598Z,100054.00
2022-08-26T06:14:20.044Z,100054.44
2022-08-26T06:16:55.088Z,100052.75
2022-08-26T06:19:32.902Z,100052.75
2022-08-26T06:22:23.894Z,100055.97
2022-08-26T06:25:15.654Z,100063.44
2022-08-26T06:27:49.987Z,100055.41
2022-08-26T06:30:24.483Z,100048.13
2022-08-26T06:32:59.737Z,100049.06
2022-08-26T06:35:38.210Z,100054.50
2022-08-26T06:38:14.158Z,100045.31
2022-08-26T06:40:50.732Z,100044.37
2022-08-26T06:43:27.212Z,100036.13
2022-08-26T06:46:04.767Z,100046.97
2022-08-26T06:48:39.734Z,100041.88
2022-08-26T06:51:16.591Z,100047.28
2022-08-26T06:53:54.401Z,100055.16
2022-08-26T06:56:34.007Z,100052.50
2022-08-26T06:59:09.006Z,100054.56
2022-08-26T07:01:45.857Z,100054.16
2022-08-26T07:04:22.372Z,100053.97
2022-08-26T07:06:58.057Z,100050.50
2022-08-26T07:09:35.443Z,100039.97
2022-08-26T07:12:11.542Z,100048.50
2022-08-26T07:14:47.469Z,100047.72
2022-08-26T07:17:22.628Z,100043.13
2022-08-26T07:19:59.196Z,100054.22
2022-08-26T07:22:34.168Z,100052.09
2022-08-26T07:25:10.302Z,100052.78
2022-08-26T07:27:44.710Z,100050.31
2022-08-26T07:30:19.083Z,100053.59
2022-08-26T07:32:53.491Z,100056.50
2022-08-26T07:35:28.122Z,100049.88
2022-08-26T07:38:02.943Z,100056.00
2022-08-26T07:40:38.900Z,100045.59
2022-08-26T07:43:13.374Z,100056.91
2022-08-26T07:45:47.514Z,100053.75
2022-08-26T07:48:22.468Z,100058.91
2022-08-26T08:58:19.175Z,100016.31
2022-08-26T09:01:01.606Z,100005.72
2022-08-26T09:03:48.938Z,100010.66
2022-08-26T09:08:11.144Z,100000.81
2022-08-26T09:10:50.983Z,100000.81
2022-08-26T09:13:27.319Z,100000.63
2022-08-26T09:16:08.420Z,99995.34
2022-08-26T09:19:11.994Z,99989.38
2022-08-26T09:21:46.627Z,99993.97
2022-08-26T09:24:31.735Z,99994.47
2022-08-26T09:27:06.972Z,99997.12
2022-08-26T09:29:44.964Z,100001.53
2022-08-26T09:32:26.605Z,99991.00
2022-08-26T09:35:04.446Z,99992.47
2022-08-26T09:40:30.471Z,99980.44
2022-08-26T09:43:22.253Z,99977.63
2022-08-26T09:46:13.706Z,99981.47
2022-08-26T09:48:48.612Z,99970.94
2022-08-26T09:51:32.052Z,99974.66
2022-08-26T09:54:08.229Z,99969.56
2022-08-26T09:56:47.461Z,99971.47
2022-08-26T09:59:31.681Z,99970.53
2022-08-26T10:02:21.692Z,99971.75
2022-08-26T10:04:58.915Z,99970.09
2022-08-26T10:07:46.829Z,99968.47
2022-08-26T10:10:26.258Z,99974.84
2022-08-26T10:13:10.844Z,99959.56
2022-08-26T10:15:52.085Z,99969.41
2022-08-26T10:18:34.715Z,99958.19
2022-08-26T10:21:14.131Z,99961.53
2022-08-26T10:23:56.717Z,99948.22
2022-08-26T10:26:40.011Z,99952.56
2022-08-26T10:29:24.303Z,99952.56
2022-08-26T10:32:03.740Z,99953.94
2022-08-26T10:34:37.979Z,99947.44
2022-08-26T10:37:16.726Z,99950.91
2022-08-26T10:39:57.229Z,99946.38
2022-08-26T10:42:37.600Z,99952.78
2022-08-26T10:45:17.048Z,99948.59
2022-08-26T10:47:56.741Z,99943.66
2022-08-26T10:50:34.288Z,99933.28
2022-08-26T10:53:15.561Z,99943.66
2022-08-26T10:55:58.127Z,99928.84
2022-08-26T10:58:49.456Z,99936.25
2022-08-26T11:01:47.002Z,99930.06
2022-08-26T11:04:44.516Z,99929.22
2022-08-26T11:07:36.993Z,99923.00
2022-08-26T11:10:28.029Z,99928.31
2022-08-26T11:13:04.426Z,99927.81
2022-08-26T11:16:01.251Z,99917.19
2022-08-26T11:18:54.762Z,99919.16
2022-08-26T11:22:06.122Z,99916.41
2022-08-26T11:24:48.303Z,99911.69
2022-08-26T11:27:54.692Z,99903.94
2022-08-26T11:30:44.674Z,99904.16
2022-08-26T11:33:51.037Z,99896.56
2022-08-26T11:36:51.312Z,99898.31
2022-08-26T11:39:33.383Z,99891.47
2022-08-26T11:42:24.936Z,99892.47
2022-08-26T11:45:14.500Z,99888.25
2022-08-26T11:47:49.381Z,99886.47
2022-08-26T11:50:28.201Z,99881.53
2022-08-26T11:53:06.097Z,99879.53
2022-08-26T11:55:45.119Z,99883.47
2022-08-26T11:58:22.667Z,99877.34
2022-08-26T12:01:03.582Z,99874.19
2022-08-26T12:03:42.866Z,99866.34
2022-08-26T12:09:09.052Z,99871.94
2022-08-26T12:11:43.984Z,99873.63
2022-08-26T12:14:20.907Z,99859.88
2022-08-26T12:16:55.273Z,99862.50
2022-08-26T12:19:33.250Z,99858.16
2022-08-26T12:22:18.173Z,99854.97
2022-08-26T12:25:00.310Z,99849.66
2022-08-26T12:27:36.902Z,99847.69
2022-08-26T12:30:15.639Z,99841.59
2022-08-26T12:32:57.840Z,99837.56
2022-08-26T12:35:34.892Z,99844.94
2022-08-26T12:38:12.186Z,99825.19
2022-08-26T12:40:50.386Z,99828.56
2022-08-26T12:43:43.716Z,99826.31
2022-08-26T12:46:25.825Z,99830.16
2022-08-26T12:49:01.483Z,99822.53
2022-08-26T12:51:42.075Z,99823.91
2022-08-26T12:54:17.966Z,99819.78
2022-08-26T12:56:52.446Z,99809.44
2022-08-26T12:59:27.559Z,99813.09
2022-08-26T13:02:02.171Z,99813.22
2022-08-26T13:04:39.797Z,99802.44
2022-08-26T13:07:23.033Z,99810.78
2022-08-26T13:10:01.051Z,99814.25
2022-08-26T13:12:37.545Z,99798.91
2022-08-26T13:15:11.746Z,99796.94
2022-08-26T13:17:46.307Z,99794.69
2022-08-26T13:20:20.516Z,99787.44
2022-08-26T13:22:58.762Z,99790.81
2022-08-26T13:25:34.851Z,99784.12
2022-08-26T13:28:09.343Z,99783.00
2022-08-26T13:30:47.899Z,99777.25
2022-08-26T13:33:22.897Z,99773.66
2022-08-26T13:35:57.095Z,99777.69
2022-08-26T13:38:33.743Z,99772.75
2022-08-26T13:41:09.505Z,99766.97
2022-08-26T13:43:46.735Z,99769.62
2022-08-26T13:46:21.071Z,99763.94
2022-08-26T13:48:56.118Z,99765.53
2022-08-26T13:51:31.383Z,99760.22
2022-08-26T13:54:06.906Z,99752.00
2022-08-26T13:56:42.468Z,99750.44
2022-08-26T13:59:17.208Z,99750.09
2022-08-26T14:01:51.643Z,99758.00
2022-08-26T14:04:27.530Z,99753.75
2022-08-26T14:07:01.734Z,99753.44
2022-08-26T14:09:38.378Z,99754.12
2022-08-26T14:12:14.132Z,99750.78
2022-08-26T14:14:48.689Z,99756.75
2022-08-26T14:17:26.364Z,99743.66
2022-08-26T14:20:06.490Z,99747.38
2022-08-26T14:23:03.532Z,99752.72
2022-08-26T14:25:39.252Z,99747.50
2022-08-26T14:28:14.906Z,99747.66
2022-08-26T14:30:55.134Z,99746.31
2022-08-26T14:33:32.845Z,99744.63
2022-08-26T14:36:25.593Z,99742.16
2022-08-26T14:39:02.151Z,99742.91
2022-08-26T14:41:39.991Z,99743.94
2022-08-26T14:44:17.912Z,99739.25
2022-08-26T14:46:54.659Z,99738.19
2022-08-26T14:49:31.283Z,99750.28
2022-08-26T14:52:05.966Z,99746.47
2022-08-26T14:54:40.238Z,99749.94
2022-08-26T14:57:16.348Z,99753.94
2022-08-26T14:59:53.224Z,99750.47
2022-08-26T15:02:33.281Z,99756.16
2022-08-26T15:05:10.904Z,99751.47
2022-08-26T15:07:45.471Z,99750.75
2022-08-26T15:10:19.665Z,99753.06
2022-08-26T15:12:54.104Z,99753.94
2022-08-26T15:15:29.925Z,99747.81
2022-08-26T15:18:04.427Z,99744.38
2022-08-26T15:20:38.600Z,99744.50
2022-08-26T15:23:13.204Z,99737.34
2022-08-26T15:25:48.299Z,99738.97
2022-08-26T15:28:22.996Z,99739.19
2022-08-26T15:30:58.687Z,99734.00
2022-08-26T15:33:33.369Z,99733.25
2022-08-26T15:36:09.005Z,99741.41
2022-08-26T15:38:43.588Z,99738.09
2022-08-26T15:41:17.799Z,99734.41
2022-08-26T15:43:52.459Z,99734.50
2022-08-26T15:46:28.409Z,99725.84
2022-08-26T15:49:02.979Z,99726.09
2022-08-26T15:51:45.328Z,99729.31
2022-08-26T15:54:23.668Z,99727.09
2022-08-26T15:56:59.472Z,99728.09
2022-08-26T15:59:34.002Z,99728.94
2022-08-26T16:02:09.897Z,99723.03
2022-08-26T16:04:44.475Z,99719.22
2022-08-26T16:07:18.797Z,99713.28
2022-08-26T16:09:54.747Z,99722.78
2022-08-26T16:12:29.387Z,99718.44
2022-08-26T16:15:03.945Z,99719.44
2022-08-26T16:17:40.798Z,99716.84
2022-08-26T16:20:15.585Z,99715.81
2022-08-26T16:22:50.084Z,99708.91
2022-08-26T16:25:24.741Z,99702.22
2022-08-26T16:27:59.439Z,99701.25
2022-08-26T16:30:34.453Z,99705.78
2022-08-26T16:33:10.339Z,99695.09
2022-08-26T16:35:45.322Z,99697.81
2022-08-26T16:38:19.453Z,99698.91
2022-08-26T16:40:53.913Z,99701.22
2022-08-26T16:43:28.339Z,99705.19
2022-08-26T16:46:02.846Z,99707.34
2022-08-26T16:48:38.673Z,99703.37
2022-08-26T16:51:15.475Z,99700.91
2022-08-26T16:53:50.749Z,99703.03
2022-08-26T16:56:33.524Z,99703.03
2022-08-26T16:59:11.703Z,99700.06
2022-08-26T17:01:46.391Z,99694.41
2022-08-26T17:04:22.116Z,99699.53
2022-08-26T17:06:56.918Z,99693.19
2022-08-26T17:09:31.567Z,99703.09
2022-08-26T17:12:06.658Z,99696.63
2022-08-26T17:14:41.416Z,99703.97
2022-08-26T17:17:16.023Z,99698.06
2022-08-26T17:19:51.824Z,99707.81
2022-08-26T17:22:26.353Z,99703.22
2022-08-26T17:25:00.505Z,99702.38
2022-08-26T17:27:34.945Z,99710.19
2022-08-26T17:30:10.131Z,99710.06
2022-08-26T17:32:45.497Z,99706.97
2022-08-26T17:35:22.464Z,99707.12
2022-08-26T17:37:57.426Z,99707.75
2022-08-26T17:40:31.872Z,99713.06
2022-08-26T17:43:11.652Z,99715.28
2022-08-26T17:45:46.746Z,99708.88
2022-08-26T17:48:21.527Z,99710.47
2022-08-26T17:50:57.506Z,99707.00
2022-08-26T17:53:31.966Z,99704.28
2022-08-26T17:56:08.289Z,99708.56
2022-08-26T17:58:48.160Z,99710.31
2022-08-26T18:01:27.989Z,99717.03
2022-08-26T18:04:02.541Z,99717.44
2022-08-26T18:06:39.337Z,99715.34
2022-08-26T18:09:14.148Z,99714.53
2022-08-26T18:11:48.546Z,99719.87
2022-08-26T18:14:23.228Z,99716.56
2022-08-26T18:16:57.516Z,99713.06
2022-08-26T18:19:32.276Z,99720.81
2022-08-26T18:22:07.986Z,99721.31
2022-08-26T18:24:42.639Z,99726.94
2022-08-26T18:27:32.462Z,99721.25
2022-08-26T18:30:14.576Z,99724.06
2022-08-26T18:32:51.833Z,99722.72
2022-08-26T18:35:28.513Z,99716.56
2022-08-26T18:38:10.703Z,99716.25
2022-08-26T18:40:46.825Z,99725.78
2022-08-26T18:43:21.453Z,99722.41
2022-08-26T18:46:03.372Z,99721.97
2022-08-26T18:48:39.403Z,99725.03
2022-08-26T18:51:17.411Z,99721.91
2022-08-26T18:53:53.238Z,99732.50
2022-08-26T18:56:28.375Z,99728.59
2022-08-26T18:59:02.573Z,99724.47
2022-08-26T19:01:38.801Z,99731.50
2022-08-26T19:04:15.633Z,99732.41
2022-08-26T19:06:52.066Z,99727.63
2022-08-26T19:09:27.725Z,99726.59
2022-08-26T19:12:03.012Z,99735.06
2022-08-26T19:14:37.803Z,99740.75
2022-08-26T19:17:12.607Z,99739.78
2022-08-26T19:19:46.979Z,99735.88
2022-08-26T19:22:22.316Z,99743.63
2022-08-26T19:24:57.877Z,99741.06
2022-08-26T19:27:33.215Z,99735.66
2022-08-26T19:30:09.920Z,99740.25
2022-08-26T19:32:44.657Z,99738.75
2022-08-26T19:35:18.927Z,99745.88
2022-08-26T19:37:53.862Z,99748.47
2022-08-26T19:40:29.816Z,99743.63
2022-08-26T19:43:04.485Z,99745.81
2022-08-26T19:45:39.943Z,99744.25
2022-08-26T19:48:14.623Z,99753.34
2022-08-26T19:50:49.199Z,99755.53
2022-08-26T19:53:23.817Z,99759.25
2022-08-26T19:55:59.394Z,99761.59
2022-08-26T19:58:33.948Z,99761.59
2022-08-26T20:01:09.006Z,99764.97
2022-08-26T20:03:44.651Z,99766.47
2022-08-26T20:06:20.262Z,99766.81
2022-08-26T20:08:56.246Z,99772.47
2022-08-26T20:11:31.965Z,99776.59
2022-08-26T20:14:06.391Z,99779.19
2022-08-26T20:16:40.840Z,99778.50
2022-08-26T20:19:37.244Z,99775.69
2022-08-26T20:22:13.301Z,99776.81
2022-08-26T20:24:48.539Z,99783.69
2022-08-26T20:27:37.872Z,99793.63
2022-08-26T20:30:14.454Z,99795.31
2022-08-26T20:32:48.628Z,99786.16
2022-08-26T20:35:23.983Z,99788.19
2022-08-26T20:38:00.030Z,99795.13
2022-08-26T20:40:35.691Z,99800.28
2022-08-26T20:43:11.373Z,99798.53
2022-08-26T20:45:46.486Z,99811.78
2022-08-26T20:48:20.861Z,99812.28
2022-08-26T20:50:59.544Z,99804.59
2022-08-26T20:53:34.778Z,99803.25
2022-08-26T20:56:11.083Z,99806.22
2022-08-26T20:58:46.707Z,99808.31
2022-08-26T21:01:25.186Z,99808.31
2022-08-26T21:03:59.424Z,99791.41
2022-08-26T21:06:35.090Z,99801.75
2022-08-26T21:09:11.504Z,99804.91
2022-08-26T21:11:46.286Z,99807.91
2022-08-26T21:14:25.936Z,99807.16
2022-08-26T21:17:01.315Z,99812.59
2022-08-26T21:19:35.446Z,99811.47
2022-08-26T21:22:09.930Z,99804.16
2022-08-26T21:24:44.138Z,99808.47
2022-08-26T21:27:26.312Z,99815.06
2022-08-26T21:30:02.275Z,99810.59
2022-08-26T21:32:37.031Z,99812.09
2022-08-26T21:35:12.259Z,99807.59
2022-08-26T21:37:46.740Z,99811.34
2022-08-26T21:40:21.091Z,99813.22
2022-08-26T21:42:55.746Z,99805.75
2022-08-26T21:45:31.477Z,99813.88
2022-08-26T21:48:07.404Z,99810.16
2022-08-26T21:50:41.593Z,99812.81
2022-08-26T21:53:16.221Z,99811.88
2022-08-26T21:55:50.396Z,99818.34
2022-08-26T21:58:25.002Z,99820.56
2022-08-26T22:01:01.133Z,99814.97
2022-08-26T22:03:43.584Z,99810.16
2022-08-26T22:06:25.261Z,99815.59
2022-08-26T22:09:03.164Z,99815.94
2022-08-26T22:11:37.320Z,99805.28
2022-08-26T22:14:12.639Z,99802.66
2022-08-26T22:16:50.299Z,99802.81
2022-08-26T22:19:25.946Z,99796.97
2022-08-26T22:22:00.925Z,99791.72
2022-08-26T22:24:35.404Z,99797.88
2022-08-26T22:27:09.564Z,99798.06
2022-08-26T22:29:46.620Z,99799.75
2022-08-26T22:32:23.565Z,99797.53
2022-08-26T22:34:58.063Z,99797.88
2022-08-26T22:37:32.127Z,99788.91
2022-08-26T22:40:08.151Z,99788.72
2022-08-26T22:42:42.623Z,99785.91
2022-08-26T22:45:31.427Z,99785.91
2022-08-26T22:48:07.407Z,99785.16
2022-08-26T22:50:41.997Z,99786.13
2022-08-26T22:53:17.571Z,99782.56
2022-08-26T22:55:52.123Z,99785.75
2022-08-26T22:58:30.223Z,99788.03
2022-08-26T23:01:07.600Z,99790.84
2022-08-26T23:03:43.233Z,99783.91
2022-08-26T23:06:18.138Z,99785.63
2022-08-26T23:08:53.238Z,99778.16
2022-08-26T23:11:27.641Z,99774.22
2022-08-26T23:14:02.253Z,99775.38
2022-08-26T23:16:42.862Z,99775.75
2022-08-26T23:19:22.304Z,99774.63
2022-08-26T23:21:56.783Z,99770.34
2022-08-26T23:24:30.956Z,99772.78
2022-08-26T23:27:05.608Z,99761.53
2022-08-26T23:29:39.867Z,99769.41
2022-08-26T23:32:14.420Z,99763.97
2022-08-26T23:34:59.062Z,99764.16
2022-08-26T23:37:35.952Z,99766.59
2022-08-26T23:40:13.528Z,99756.69
2022-08-26T23:42:48.019Z,99760.78
2022-08-26T23:45:23.424Z,99760.03
2022-08-26T23:47:58.070Z,99760.03
2022-08-26T23:50:50.936Z,99764.34
2022-08-26T23:53:25.453Z,99755.75
2022-08-26T23:55:59.794Z,99756.69
2022-08-26T23:58:34.374Z,99755.19
